• Join FlightAware (Why Join?)
  • Login
  • US Flag 
01:10PM EDT


 

Airport Tracker/Info


-or-


 

Live Flight TrackerFlight Track Log ✈ UAE787 ✈ 25-Apr-2013 ✈ DGAA / ACC - DIAP / ABJ

Flight Track Log - Related Links

Times and Time Zones

All times are in EDT time to prevent confusion due to time zone crossing. See the UAE787 flight status page for this flight to view local times or setup timezone preferences in your user account.

Time Position Orientation Groundspeed Altitude Reporting Facility
EDT Latitude Longitude Course Direction KTS MPH feet Rate Location/Type
09:35AM 5.5850 -0.3948 265° West  Level Estimated
09:36AM 5.5749 -0.5088 265° West  Level Estimated
09:37AM 5.5648 -0.6228 265° West  Level Estimated
09:38AM 5.5546 -0.7368 265° West  Level Estimated
09:39AM 5.5444 -0.8508 265° West  Level Estimated
09:40AM 5.5342 -0.9647 265° West  Level Estimated
09:41AM 5.5240 -1.0787 265° West  Level Estimated
09:42AM 5.5137 -1.1927 265° West  Level Estimated
09:43AM 5.5034 -1.3067 265° West  Level Estimated
09:44AM 5.4932 -1.4207 265° West  Level Estimated
09:45AM 5.4829 -1.5346 265° West  Level Estimated
09:46AM 5.4725 -1.6486 265° West  Level Estimated
09:47AM 5.4622 -1.7625 265° West  Level Estimated
09:48AM 5.4518 -1.8765 265° West  Level Estimated
09:49AM 5.4414 -1.9904 265° West  Level Estimated
09:50AM 5.4310 -2.1044 265° West  Level Estimated
09:51AM 5.4205 -2.2183 265° West  Level Estimated
09:52AM 5.4100 -2.3323 265° West  Level Estimated
09:53AM 5.3996 -2.4462 265° West  Level Estimated
09:54AM 5.3891 -2.5601 265° West  Level Estimated
09:55AM 5.3785 -2.6740 265° West  Level Estimated
09:56AM 5.3680 -2.7880 265° West  Level Estimated
09:57AM 5.3574 -2.9019 265° West  Level Estimated
09:58AM 5.3468 -3.0158 265° West  Level Estimated
09:59AM 5.3362 -3.1297 265° West  Level Estimated
10:00AM 5.3256 -3.2436 265° West  Level Estimated
10:01AM 5.3149 -3.3575 265° West  Level Estimated
10:02AM 5.3042 -3.4714 265° West  Level Estimated
10:03AM 5.2935 -3.5853 265° West  Level Estimated
10:04AM 5.2828 -3.6992 265° West  Level Estimated
10:05AM 5.2721 -3.8131 265° West  Level Estimated
10:06AM 5.2614 -3.9263 265° West  Level Estimated
10:07AM 5.2614 -3.9263 225° Southwest  Level Estimated
10:08AM 5.2614 -3.9263 225° Southwest  Level Estimated
10:09AM 5.2614 -3.9263 225° Southwest  Level Estimated
10:10AM 5.2614 -3.9263 225° Southwest  Level Estimated
10:11AM 5.2614 -3.9263 225° Southwest  Level Estimated
10:12AM 5.2614 -3.9263 225° Southwest  Level Estimated
10:13AM 5.2614 -3.9263 225° Southwest  Level Estimated
10:14AM 5.2614 -3.9263 225° Southwest  Level Estimated
10:15AM 5.2614 -3.9263 225° Southwest  Level Estimated
10:16AM 5.2614 -3.9263 225° Southwest  Level Estimated
10:17AM 5.2614 -3.9263 225° Southwest  Level Estimated